Village of the Hills, Texas
Current Conditions -  °F | °C
As of 5:15 PM on Tuesday 25 Nov 2014 (Local Time) from KRYW Reporting Station
Clear Clear  
Wind Chill: 61°   Ceiling: Unl
Heat Index: 61°   Visibility: 10mi
Dew Point: 25°   Wind: 5mph
Humidity: 25%   Direction: 280°W
Pressure: 30.2"   Gusts: NA
Location:  30.3192°N, 98.0276°W
Report Text: KRYW 252315Z AUTO 28004KT 10SM CLR 16/M04 A3020 RMK AO2 T01621038
Loading
Personal Weather Stations






























Interactive Weather Map New forecast layout! Learn more

10-Day Weather Forecast

Advertisements
Track Severe Weather on mobile